Correctionville, Iowa
Current Conditions -  °F | °C
As of 1:55 PM on Sunday 23 Nov 2014 (Local Time) from KCKP Reporting Station
Overcast Overcast  
Wind Chill: 34°   Ceiling: 7500
Heat Index: 43°   Visibility: 10mi
Dew Point: 39°   Wind: 22mph
Humidity: 85%   Direction: 340°NNW
Pressure: 29.45"   Gusts: 26mph
Location:  42.47°N, 95.79°W
Report Text: KCKP 231955Z AUTO 34019G23KT 10SM SCT033 OVC075 06/04 A2945 RMK AO2 T00600037
Loading
Personal Weather Stations






























Interactive Weather Map New forecast layout! Learn more

10-Day Weather Forecast

Advertisements
Track Severe Weather on mobile